Cochrane, Canada
Current Conditions -  °F | °C
As of 2:00 AM on Wednesday 22 Oct 2014 (Local Time) from CYBW Reporting Station
Clear Clear  
Wind Chill: 41°   Ceiling: Unl
Heat Index: 41°   Visibility: 9mi
Dew Point: 27°   Wind: 3mph
Humidity: 57%   Direction: 340°NNW
Pressure: 29.78"   Gusts: NA
Location:  51.2°N, 114.45°W
Report Text: CYBW 220800Z AUTO 34003KT 9SM CLR 05/M03 A2978 RMK SLP099
Loading
Personal Weather Stations






























Interactive Weather Map
Tropical Storm Tracking
New forecast layout! Learn more

10-Day Weather Forecast

Advertisements
Track Severe Weather on mobile